createdAt,value
2019-03-19T00:00:51.583Z,16.02
2019-03-19T00:04:56.581Z,20.50
2019-03-19T00:09:01.533Z,20.10
2019-03-19T00:13:07.793Z,16.45
2019-03-19T00:17:12.753Z,18.90
2019-03-19T00:21:17.750Z,20.72
2019-03-19T00:25:29.804Z,23.87
2019-03-19T00:29:29.343Z,17.15
2019-03-19T00:33:34.300Z,21.52
2019-03-19T00:37:39.277Z,16.93
2019-03-19T00:41:44.264Z,23.52
2019-03-19T00:45:49.218Z,15.68
2019-03-19T00:49:55.181Z,23.12
2019-03-19T00:54:00.139Z,19.90
2019-03-19T00:58:05.119Z,16.05
2019-03-19T01:02:10.111Z,21.62
2019-03-19T01:06:15.061Z,27.20
2019-03-19T01:10:20.210Z,17.27
2019-03-19T01:14:25.165Z,18.12
2019-03-19T01:18:30.138Z,21.45
2019-03-19T01:22:35.194Z,24.20
2019-03-19T01:26:40.116Z,20.88
2019-03-19T01:30:45.117Z,20.57
2019-03-19T01:34:50.086Z,23.57
2019-03-19T01:38:55.078Z,19.85
2019-03-19T01:43:00.033Z,17.67
2019-03-19T01:47:05.024Z,22.58
2019-03-19T01:51:09.981Z,19.35
2019-03-19T01:55:15.612Z,19.45
2019-03-19T01:59:20.640Z,17.77
2019-03-19T02:03:25.624Z,22.90
2019-03-19T02:07:30.610Z,17.73
2019-03-19T02:11:38.243Z,20.23
2019-03-19T02:15:42.480Z,17.32
2019-03-19T02:19:47.492Z,15.83
2019-03-19T02:23:52.520Z,22.05
2019-03-19T02:27:57.600Z,19.73
2019-03-19T02:32:02.576Z,20.90
2019-03-19T02:36:07.548Z,18.52
2019-03-19T02:40:16.550Z,13.43
2019-03-19T02:44:21.510Z,21.87
2019-03-19T02:48:26.502Z,19.92
2019-03-19T02:52:31.464Z,21.25
2019-03-19T02:56:39.017Z,21.87
2019-03-19T03:00:43.717Z,14.13
2019-03-19T03:04:48.675Z,20.65
2019-03-19T03:08:53.661Z,14.15
2019-03-19T03:12:58.626Z,24.80
2019-03-19T03:17:03.650Z,28.00
2019-03-19T03:21:08.596Z,18.17
2019-03-19T03:25:14.536Z,11.05
2019-03-19T03:29:19.520Z,28.60
2019-03-19T03:33:24.481Z,26.05
2019-03-19T03:37:29.448Z,17.48
2019-03-19T03:41:34.432Z,15.20
2019-03-19T03:45:39.387Z,16.50
2019-03-19T03:49:44.411Z,13.30
2019-03-19T03:53:49.967Z,24.55
2019-03-19T03:57:54.956Z,14.00
2019-03-19T04:01:59.921Z,17.60
2019-03-19T04:06:04.909Z,20.45
2019-03-19T04:10:17.667Z,23.12
2019-03-19T04:14:22.640Z,14.75
2019-03-19T04:18:27.589Z,20.15
2019-03-19T04:22:32.565Z,17.85
2019-03-19T04:26:37.627Z,20.48
2019-03-19T04:30:42.619Z,21.97
2019-03-19T04:34:47.559Z,26.93
2019-03-19T04:38:52.577Z,22.75
2019-03-19T04:42:57.542Z,20.80
2019-03-19T04:47:02.518Z,22.27
2019-03-19T04:51:07.462Z,28.32
2019-03-19T04:55:16.517Z,16.90
2019-03-19T04:59:22.130Z,25.02
2019-03-19T05:03:27.077Z,19.15
2019-03-19T05:07:32.064Z,23.20
2019-03-19T05:11:37.266Z,17.70
2019-03-19T05:15:43.296Z,26.80
2019-03-19T05:19:48.273Z,22.52
2019-03-19T05:23:53.227Z,16.87
2019-03-19T05:27:58.205Z,22.45
2019-03-19T05:32:03.160Z,18.77
2019-03-19T05:36:08.132Z,24.57
2019-03-19T05:40:17.134Z,14.13
2019-03-19T05:44:22.083Z,23.83
2019-03-19T05:48:27.076Z,22.67
2019-03-19T05:52:32.075Z,14.60
2019-03-19T05:56:37.022Z,17.70
2019-03-19T06:00:42.004Z,22.65
2019-03-19T06:04:46.983Z,23.55
2019-03-19T06:08:51.930Z,14.63
2019-03-19T06:12:56.921Z,17.07
2019-03-19T06:17:01.880Z,27.17
2019-03-19T06:21:09.729Z,19.80
2019-03-19T06:25:14.758Z,20.15
2019-03-19T06:29:19.737Z,23.02
2019-03-19T06:33:24.685Z,15.88
2019-03-19T06:37:30.737Z,16.75
2019-03-19T06:41:35.728Z,15.98
2019-03-19T06:45:40.680Z,13.95
2019-03-19T06:49:45.658Z,10.05
2019-03-19T06:53:50.653Z,22.27
2019-03-19T06:57:55.612Z,17.37
2019-03-19T07:02:00.612Z,22.75
2019-03-19T07:06:05.743Z,19.23
2019-03-19T07:10:15.468Z,16.87
2019-03-19T07:14:21.523Z,20.32
2019-03-19T07:18:26.495Z,15.80
2019-03-19T07:22:31.505Z,18.30
2019-03-19T07:26:36.465Z,19.45
2019-03-19T07:30:41.444Z,18.23
2019-03-19T07:34:46.397Z,20.15
2019-03-19T07:38:51.412Z,13.90
2019-03-19T07:42:56.405Z,17.12
2019-03-19T07:47:01.396Z,15.35
2019-03-19T07:51:06.347Z,10.93
2019-03-19T07:55:11.821Z,16.80
2019-03-19T07:59:16.786Z,13.95
2019-03-19T08:03:21.806Z,18.75
2019-03-19T08:07:26.753Z,22.27
2019-03-19T08:11:31.767Z,22.98
2019-03-19T08:15:36.717Z,15.30
2019-03-19T08:19:41.820Z,18.23
2019-03-19T08:23:46.822Z,20.32
2019-03-19T08:27:51.790Z,22.02
2019-03-19T08:31:56.896Z,16.27
2019-03-19T08:36:09.244Z,20.72
2019-03-19T08:40:13.899Z,16.93
2019-03-19T08:44:27.516Z,15.70
2019-03-19T08:48:25.497Z,22.73
2019-03-19T08:52:30.464Z,16.57
2019-03-19T08:56:35.466Z,20.70
2019-03-19T09:00:40.593Z,15.43
2019-03-19T09:04:46.653Z,16.10
2019-03-19T09:08:51.611Z,31.57
2019-03-19T09:12:56.592Z,20.60
2019-03-19T09:17:01.553Z,21.30
2019-03-19T09:21:06.531Z,14.98
2019-03-19T09:25:12.163Z,18.62
2019-03-19T09:29:17.444Z,24.35
2019-03-19T09:33:22.556Z,18.25
2019-03-19T09:37:27.518Z,18.23
2019-03-19T09:41:32.504Z,19.10
2019-03-19T09:45:37.453Z,21.97
2019-03-19T09:49:42.432Z,23.02
2019-03-19T09:53:47.384Z,23.90
2019-03-19T09:57:52.364Z,20.08
2019-03-19T10:01:57.345Z,13.65
2019-03-19T10:06:13.637Z,15.05
2019-03-19T10:10:14.958Z,13.78
2019-03-19T10:14:19.913Z,9.98
2019-03-19T10:18:24.908Z,19.82
2019-03-19T10:22:29.881Z,10.85
2019-03-19T10:26:34.906Z,10.10
2019-03-19T10:30:39.893Z,14.13
2019-03-19T10:34:44.866Z,14.78
2019-03-19T10:38:49.851Z,10.45
2019-03-19T10:42:54.847Z,9.85
2019-03-19T10:46:59.802Z,10.95
2019-03-19T10:51:05.055Z,13.40
2019-03-19T10:55:10.463Z,12.03
2019-03-19T10:59:15.498Z,13.53
2019-03-19T11:03:20.490Z,15.63
2019-03-19T11:07:25.457Z,10.82
2019-03-19T11:11:30.442Z,10.35
2019-03-19T11:15:35.405Z,14.20
2019-03-19T11:19:40.373Z,7.28
2019-03-19T11:23:45.325Z,8.15
2019-03-19T11:27:50.349Z,9.75
2019-03-19T11:31:55.460Z,10.23
2019-03-19T11:36:00.416Z,9.30
2019-03-19T11:40:08.492Z,11.08
2019-03-19T11:44:13.557Z,11.05
2019-03-19T11:48:18.505Z,8.90
2019-03-19T11:52:23.486Z,7.65
2019-03-19T11:56:28.452Z,8.65
2019-03-19T12:00:35.111Z,8.48
2019-03-19T12:04:40.164Z,8.05
2019-03-19T12:08:45.152Z,14.63
2019-03-19T12:12:50.215Z,10.25
2019-03-19T12:16:55.190Z,7.25
2019-03-19T12:21:00.185Z,8.88
2019-03-19T12:25:12.882Z,9.10
2019-03-19T12:29:17.878Z,7.65
2019-03-19T12:33:22.884Z,9.95
2019-03-19T12:37:28.910Z,8.60
2019-03-19T12:41:33.900Z,5.40
2019-03-19T12:45:38.881Z,5.35
2019-03-19T12:49:43.886Z,4.95
2019-03-19T12:53:48.856Z,8.98
2019-03-19T12:57:53.820Z,5.22
2019-03-19T13:01:58.809Z,6.33
2019-03-19T13:06:03.773Z,7.90
2019-03-19T13:10:13.956Z,6.75
2019-03-19T13:14:18.914Z,5.17
2019-03-19T13:18:23.898Z,5.20
2019-03-19T13:22:28.854Z,4.65
2019-03-19T13:26:33.858Z,9.90
2019-03-19T13:30:45.045Z,6.87
2019-03-19T13:34:45.409Z,6.30
2019-03-19T13:38:50.369Z,8.13
2019-03-19T13:42:55.392Z,8.88
2019-03-19T13:47:00.346Z,8.95
2019-03-19T13:51:05.305Z,7.40
2019-03-19T13:55:13.057Z,7.45
2019-03-19T13:59:18.189Z,10.10
2019-03-19T14:03:23.171Z,10.08
2019-03-19T14:07:28.125Z,7.40
2019-03-19T14:11:33.104Z,7.67
2019-03-19T14:15:38.084Z,8.80
2019-03-19T14:19:43.199Z,10.13
2019-03-19T14:23:48.208Z,9.73
2019-03-19T14:27:53.182Z,5.40
2019-03-19T14:31:58.154Z,11.48
2019-03-19T14:36:03.316Z,4.72
2019-03-19T14:40:14.197Z,8.85
2019-03-19T14:44:21.754Z,12.68
2019-03-19T14:48:25.783Z,9.15
2019-03-19T14:52:31.020Z,12.25
2019-03-19T14:56:37.189Z,10.43
2019-03-19T15:00:42.160Z,10.48
2019-03-19T15:04:47.486Z,13.83
2019-03-19T15:08:52.730Z,10.25
2019-03-19T15:12:58.079Z,11.00
2019-03-19T15:17:05.190Z,6.55
2019-03-19T15:21:10.622Z,9.08
2019-03-19T15:25:16.385Z,7.33
2019-03-19T15:29:22.964Z,6.58
2019-03-19T15:33:29.036Z,9.80
2019-03-19T15:37:36.709Z,9.05
2019-03-19T15:41:42.507Z,13.08
2019-03-19T15:45:47.556Z,12.05
2019-03-19T15:49:52.622Z,9.63
2019-03-19T15:53:57.578Z,8.38
2019-03-19T15:58:03.795Z,7.20
2019-03-19T16:02:09.131Z,9.98
2019-03-19T16:06:14.494Z,8.20
2019-03-19T16:10:20.051Z,12.60
2019-03-19T16:14:25.375Z,9.55
2019-03-19T16:18:30.955Z,6.50
2019-03-19T16:22:36.511Z,12.95
2019-03-19T16:26:42.170Z,10.38
2019-03-19T16:30:47.827Z,8.80
2019-03-19T16:34:53.484Z,7.87
2019-03-19T16:38:58.836Z,12.80
2019-03-19T16:43:04.006Z,10.13
2019-03-19T16:47:08.996Z,10.25
2019-03-19T16:51:14.375Z,9.45
2019-03-19T16:55:20.854Z,14.93
2019-03-19T16:59:26.203Z,13.98
2019-03-19T17:03:31.654Z,11.45
2019-03-19T17:07:37.112Z,9.10
2019-03-19T17:11:42.665Z,6.67
2019-03-19T17:15:49.345Z,9.55
2019-03-19T17:19:55.006Z,9.40
2019-03-19T17:24:00.660Z,12.30
2019-03-19T17:28:07.752Z,7.75
2019-03-19T17:32:18.204Z,11.43
2019-03-19T17:36:23.924Z,9.80
2019-03-19T17:40:40.560Z,8.25
2019-03-19T17:44:37.346Z,9.68
2019-03-19T17:48:44.206Z,11.12
2019-03-19T17:52:51.584Z,9.28
2019-03-19T17:56:59.540Z,9.68
2019-03-19T18:01:16.795Z,14.03
2019-03-19T18:05:14.030Z,14.13
2019-03-19T18:09:20.813Z,14.00
2019-03-19T18:13:27.799Z,8.00
2019-03-19T18:17:34.484Z,12.50
2019-03-19T18:21:40.041Z,5.42
2019-03-19T18:25:47.440Z,7.17
2019-03-19T18:29:55.563Z,11.63
2019-03-19T18:34:09.989Z,10.80
2019-03-19T18:38:08.611Z,9.30
2019-03-19T18:42:14.266Z,10.35
2019-03-19T18:46:19.924Z,14.78
2019-03-19T18:50:26.607Z,11.43
2019-03-19T18:54:32.264Z,8.90
2019-03-19T18:58:38.056Z,9.43
2019-03-19T19:02:49.670Z,15.23
2019-03-19T19:06:51.180Z,14.65
2019-03-19T19:10:56.842Z,10.88
2019-03-19T19:15:02.546Z,9.43
2019-03-19T19:19:08.459Z,11.33
2019-03-19T19:23:16.636Z,8.35
2019-03-19T19:27:23.365Z,10.43
2019-03-19T19:31:29.741Z,9.13
2019-03-19T19:35:39.855Z,16.15
2019-03-19T19:39:47.752Z,12.70
2019-03-19T19:43:55.207Z,15.13
2019-03-19T19:48:00.967Z,14.50
2019-03-19T19:52:08.206Z,15.35
2019-03-19T19:56:26.823Z,9.80
2019-03-19T20:00:34.020Z,14.40
2019-03-19T20:04:40.290Z,12.98
2019-03-19T20:08:46.050Z,7.33
2019-03-19T20:12:52.937Z,10.75
2019-03-19T20:16:59.002Z,14.00
2019-03-19T20:21:05.378Z,11.55
2019-03-19T20:25:12.221Z,11.22
2019-03-19T20:29:18.023Z,11.03
2019-03-19T20:33:26.447Z,12.05
2019-03-19T20:37:33.761Z,10.50
2019-03-19T20:41:39.911Z,8.03
2019-03-19T20:45:45.601Z,9.45
2019-03-19T20:49:52.456Z,12.55
2019-03-19T20:53:58.776Z,17.42
2019-03-19T20:58:06.232Z,11.15
2019-03-19T21:02:11.989Z,12.53
2019-03-19T21:06:17.752Z,13.30
2019-03-19T21:10:24.450Z,13.93
2019-03-19T21:14:30.197Z,12.93
2019-03-19T21:18:35.853Z,19.15
2019-03-19T21:22:42.775Z,20.52
2019-03-19T21:26:48.501Z,23.40
2019-03-19T21:30:54.155Z,14.85
2019-03-19T21:34:59.712Z,17.65
2019-03-19T21:39:07.575Z,16.75
2019-03-19T21:43:13.173Z,23.27
2019-03-19T21:47:18.733Z,15.15
2019-03-19T21:51:25.313Z,24.20
2019-03-19T21:55:30.867Z,21.23
2019-03-19T21:59:36.506Z,21.95
2019-03-19T22:03:42.079Z,23.40
2019-03-19T22:07:47.837Z,19.25
2019-03-19T22:11:53.392Z,19.37
2019-03-19T22:15:59.155Z,14.60
2019-03-19T22:20:06.235Z,15.95
2019-03-19T22:24:11.717Z,14.85
2019-03-19T22:28:16.947Z,14.87
2019-03-19T22:32:21.925Z,14.43
2019-03-19T22:36:26.993Z,14.33
2019-03-19T22:40:31.981Z,10.05
2019-03-19T22:44:37.118Z,16.95
2019-03-19T22:48:42.470Z,11.25
2019-03-19T22:52:47.795Z,18.25
2019-03-19T22:56:52.860Z,14.23
2019-03-19T23:00:57.811Z,15.38
2019-03-19T23:05:02.850Z,13.80
2019-03-19T23:09:08.041Z,16.35
2019-03-19T23:13:13.464Z,13.83
2019-03-19T23:17:18.599Z,21.48
2019-03-19T23:21:23.632Z,15.85
2019-03-19T23:25:29.642Z,14.83
2019-03-19T23:29:34.636Z,18.42
2019-03-19T23:33:39.785Z,21.00
2019-03-19T23:37:44.768Z,14.93
2019-03-19T23:41:50.133Z,17.15
2019-03-19T23:45:55.116Z,18.42
2019-03-19T23:50:00.094Z,20.35
2019-03-19T23:54:05.078Z,18.62
2019-03-19T23:58:10.081Z,15.70
